Time;durP1;ratioP1;P1;durP2;ratioP2;P2;SDS_P1;SDS_P2;PMS_P1;PMS_P2;Temp;Humidity;BMP_temperature;BMP_pressure;BME280_temperature;BME280_humidity;BME280_pressure;Samples;Min_cycle;Max_cycle;Signal;HPM_P1;HPM_P2
2021/03/21 05:00:35;;;;;;;8.13;7.43;;;;;;;1.74;92.51;94567.00;6125225;23;20044;-73
2021/03/21 05:03:10;;;;;;;8.77;7.22;;;;;;;1.75;92.69;94572.00;6152937;23;20013;-73
2021/03/21 05:05:38;;;;;;;8.63;7.82;;;;;;;1.66;92.47;94569.41;6154745;23;20088;-73
2021/03/21 05:08:10;;;;;;;6.18;5.68;;;;;;;1.73;92.08;94570.50;6178020;23;20458;-73
2021/03/21 05:10:47;;;;;;;6.00;5.40;;;;;;;1.83;91.95;94572.16;6179230;23;20027;-72
2021/03/21 05:13:40;;;;;;;5.40;4.90;;;;;;;1.83;91.80;94571.38;6177177;23;20009;-73
2021/03/21 05:16:24;;;;;;;7.32;6.63;;;;;;;1.82;92.04;94568.00;6180014;23;20020;-73
2021/03/21 05:19:10;;;;;;;6.75;6.25;;;;;;;1.93;91.75;94567.09;6156048;23;20446;-73
2021/03/21 05:21:54;;;;;;;11.65;9.45;;;;;;;1.91;91.97;94566.41;6176823;23;20024;-73
2021/03/21 05:24:39;;;;;;;9.48;8.68;;;;;;;2.08;91.83;94558.16;6179319;23;20055;-72
2021/03/21 05:27:16;;;;;;;9.55;8.75;;;;;;;1.99;91.54;94551.28;6153698;23;20005;-73
2021/03/21 05:30:00;;;;;;;9.68;8.80;;;;;;;2.02;91.27;94548.47;6177528;23;20003;-73
2021/03/21 05:32:25;;;;;;;11.60;10.50;;;;;;;2.01;91.55;94549.41;6179778;23;20385;-73
2021/03/21 05:34:53;;;;;;;26.80;20.00;;;;;;;2.03;91.44;94539.84;6152317;23;20001;-73
2021/03/21 05:37:24;;;;;;;34.97;27.85;;;;;;;2.06;91.51;94535.28;6178825;23;20037;-73
2021/03/21 05:40:02;;;;;;;22.27;18.02;;;;;;;1.83;91.50;94533.88;6178011;23;20087;-73
2021/03/21 05:42:46;;;;;;;23.95;19.45;;;;;;;1.93;91.93;94532.16;6179404;23;20067;-73
2021/03/21 05:45:33;;;;;;;21.30;16.35;;;;;;;1.91;91.77;94540.88;6178610;23;20009;-73
2021/03/21 05:48:23;;;;;;;26.38;21.40;;;;;;;2.22;90.85;94537.34;6172012;23;20067;-73
2021/03/21 05:51:19;;;;;;;27.92;23.05;;;;;;;2.26;90.65;94551.47;6149821;23;20012;-73
2021/03/21 05:53:53;;;;;;;12.13;10.98;;;;;;;2.34;90.64;94556.75;6173628;23;20009;-73
2021/03/21 05:56:56;;;;;;;8.70;7.90;;;;;;;2.47;90.19;94557.28;6148779;23;20009;-73
2021/03/21 05:59:59;;;;;;;11.95;10.75;;;;;;;2.45;90.05;94568.59;6149203;23;20009;-73
2021/03/21 06:02:42;;;;;;;9.50;8.60;;;;;;;2.60;89.50;94580.06;6149721;23;20048;-73
2021/03/21 06:05:32;;;;;;;22.27;16.95;;;;;;;2.58;89.65;94575.09;6148208;23;20371;-73
2021/03/21 06:08:26;;;;;;;29.10;24.60;;;;;;;2.58;89.31;94587.03;6150251;23;20019;-74
2021/03/21 06:11:29;;;;;;;28.02;22.33;;;;;;;2.61;89.30;94586.78;6173110;23;20009;-74
2021/03/21 06:14:21;;;;;;;19.42;16.42;;;;;;;2.70;89.24;94577.53;6168307;23;20093;-74
2021/03/21 06:17:49;;;;;;;21.70;18.35;;;;;;;2.48;90.03;94553.00;6170839;23;20341;-74
2021/03/21 06:20:29;;;;;;;11.90;10.73;;;;;;;2.59;88.99;94550.34;6064553;23;20014;-74
2021/03/21 06:23:03;;;;;;;7.15;6.18;;;;;;;2.51;88.63;94550.19;6063574;23;20392;-74
2021/03/21 06:25:53;;;;;;;6.50;5.90;;;;;;;2.83;88.14;94547.38;6128406;23;20012;-74
2021/03/21 06:28:34;;;;;;;5.60;5.20;;;;;;;2.85;87.21;94550.63;6149867;23;20097;-75
2021/03/21 06:31:11;;;;;;;4.32;4.03;;;;;;;2.84;86.99;94570.28;6147506;23;20033;-75
2021/03/21 06:33:58;;;;;;;4.30;3.90;;;;;;;2.94;87.00;94581.31;6147689;23;20014;-74
2021/03/21 06:36:43;;;;;;;3.85;3.55;;;;;;;2.91;87.49;94593.56;6149729;23;20056;-75
2021/03/21 06:39:17;;;;;;;22.58;16.30;;;;;;;3.15;86.59;94604.19;6170366;23;20567;-75
2021/03/21 06:41:53;;;;;;;16.85;13.30;;;;;;;3.26;86.43;94605.81;6149486;23;20013;-76
2021/03/21 06:44:56;;;;;;;25.55;19.67;;;;;;;3.11;86.86;94608.75;6171108;23;20005;-75
2021/03/21 06:47:30;;;;;;;17.42;14.27;;;;;;;3.21;87.24;94600.31;6148857;23;20021;-73
2021/03/21 06:50:14;;;;;;;9.82;8.82;;;;;;;3.01;87.32;94591.81;6172831;23;20002;-75
2021/03/21 06:52:48;;;;;;;6.15;5.55;;;;;;;2.81;87.33;94588.44;6147959;23;20009;-75
2021/03/21 06:55:28;;;;;;;9.15;5.00;;;;;;;2.93;87.78;94582.25;6148776;23;20108;-76
2021/03/21 06:58:10;;;;;;;4.03;3.53;;;;;;;2.56;88.25;94586.38;6149372;23;20029;-76
2021/03/21 07:01:23;;;;;;;5.30;4.80;;;;;;;2.73;88.01;94583.16;6169629;23;20048;-76
2021/03/21 07:04:22;;;;;;;4.82;3.15;;;;;;;2.79;87.74;94582.66;6136840;23;20088;-75
2021/03/21 07:06:56;;;;;;;2.85;1.88;;;;;;;2.58;87.89;94584.50;6149802;23;20063;-76
2021/03/21 07:09:46;;;;;;;1.73;1.63;;;;;;;2.94;87.58;94590.72;6148057;23;20026;-76
2021/03/21 07:12:42;;;;;;;1.50;1.40;;;;;;;2.94;87.16;94583.06;6149425;23;20040;-75
2021/03/21 07:15:41;;;;;;;2.35;1.98;;;;;;;2.73;87.35;94583.16;6149396;23;20383;-74
2021/03/21 07:18:44;;;;;;;3.33;3.03;;;;;;;2.96;87.11;94583.72;6171256;23;20064;-75
2021/03/21 07:21:34;;;;;;;3.22;2.92;;;;;;;2.92;86.97;94588.28;6149504;23;20009;-76
2021/03/21 07:24:19;;;;;;;;;;;;;;;3.50;88.97;94583.19;6150976;23;20009;-77
2021/03/21 07:27:03;;;;;;;4.25;3.95;;;;;;;3.67;84.04;94578.16;6141914;23;19911;-77
2021/03/21 07:29:31;;;;;;;2.30;2.10;;;;;;;3.33;85.04;94581.31;6147220;23;20336;-77
2021/03/21 07:32:35;;;;;;;3.00;2.80;;;;;;;3.62;84.10;94574.38;6147229;23;20044;-76
2021/03/21 07:35:07;;;;;;;4.43;4.03;;;;;;;3.62;84.16;94582.06;6166228;23;20009;-76
2021/03/21 07:37:51;;;;;;;3.20;2.92;;;;;;;3.62;83.72;94577.75;6147971;23;20012;-75
2021/03/21 07:40:25;;;;;;;5.43;4.90;;;;;;;3.65;84.23;94584.34;6146979;23;20012;-75
2021/03/21 07:42:53;;;;;;;4.32;3.60;;;;;;;3.01;85.13;94591.81;6171984;23;20325;-75
2021/03/21 07:45:37;;;;;;;4.07;3.47;;;;;;;3.32;85.69;94583.06;6170907;23;20062;-75
2021/03/21 07:48:17;;;;;;;3.10;2.90;;;;;;;3.92;83.84;94589.53;6167657;23;20056;-75
2021/03/21 07:51:12;;;;;;;1.50;1.40;;;;;;;3.10;85.48;94581.59;6147110;23;20359;-74
2021/03/21 07:53:53;;;;;;;1.38;1.27;;;;;;;3.15;85.53;94583.72;6144613;23;20032;-75
2021/03/21 07:56:43;;;;;;;0.80;0.80;;;;;;;3.29;83.77;94579.97;6171056;23;20081;-75
2021/03/21 07:59:12;;;;;;;1.85;0.80;;;;;;;2.91;86.56;94578.22;6133281;23;20306;-74
2021/03/21 08:01:37;;;;;;;0.50;0.50;;;;;;;2.92;82.81;94575.50;6147256;23;20049;-74
2021/03/21 08:04:29;;;;;;;0.65;0.65;;;;;;;2.61;85.16;94568.91;6173433;23;20006;-74
2021/03/21 08:07:03;;;;;;;2.30;2.10;;;;;;;2.99;85.64;94563.81;6147423;23;20041;-75
2021/03/21 08:09:38;;;;;;;0.70;0.70;;;;;;;3.21;84.15;94555.06;6147875;23;20005;-75
2021/03/21 08:12:18;;;;;;;0.60;0.60;;;;;;;3.01;85.61;94559.38;6173395;23;20012;-74
2021/03/21 08:15:03;;;;;;;0.77;0.77;;;;;;;3.19;83.30;94562.06;6149136;23;20005;-74
2021/03/21 08:17:32;;;;;;;0.50;0.50;;;;;;;2.88;84.23;94556.28;6148456;23;20025;-74
2021/03/21 08:19:59;;;;;;;0.47;0.47;;;;;;;2.89;83.94;94559.66;6148457;23;20012;-74
2021/03/21 08:22:26;;;;;;;0.60;0.60;;;;;;;2.73;84.16;94546.59;6147652;23;20045;-75
2021/03/21 08:24:52;;;;;;;0.50;0.50;;;;;;;2.93;85.13;94553.31;6149153;23;20064;-75
2021/03/21 08:27:27;;;;;;;1.10;1.00;;;;;;;2.99;84.61;94548.47;6171410;23;20387;-74
2021/03/21 08:30:10;;;;;;;0.60;0.60;;;;;;;3.65;82.39;94536.53;6149028;23;20027;-74
2021/03/21 08:32:50;;;;;;;0.60;0.60;;;;;;;3.99;82.32;94529.13;6147510;23;20020;-75
2021/03/21 08:35:15;;;;;;;0.68;0.60;;;;;;;3.70;83.06;94539.47;6147582;23;20002;-75
2021/03/21 08:37:43;;;;;;;0.50;0.50;;;;;;;4.39;80.28;94549.28;6150432;23;20004;-75
2021/03/21 08:40:25;;;;;;;0.70;0.70;;;;;;;3.36;84.09;94543.47;6146699;23;20040;-75
2021/03/21 08:42:54;;;;;;;2.85;0.50;;;;;;;3.71;82.30;94542.84;6148729;23;20418;-75
2021/03/21 08:45:19;;;;;;;0.50;0.47;;;;;;;4.24;80.10;94537.88;6147242;23;20009;-75
2021/03/21 08:47:44;;;;;;;0.98;0.77;;;;;;;3.40;84.44;94526.09;6148387;23;20474;-76
2021/03/21 08:50:47;;;;;;;0.80;0.80;;;;;;;3.84;82.84;94509.22;6148298;23;20012;-76
2021/03/21 08:53:37;;;;;;;0.70;0.70;;;;;;;3.37;82.98;94508.44;6165864;23;20351;-76
2021/03/21 08:56:37;;;;;;;1.70;1.52;;;;;;;3.31;82.13;94511.56;6148781;23;20103;-76
2021/03/21 08:59:13;;;;;;;0.50;0.50;;;;;;;3.13;81.76;94519.94;6131413;23;20014;-76
2021/03/21 09:01:39;;;;;;;1.02;0.95;;;;;;;3.29;82.25;94511.69;6147822;23;20092;-76
2021/03/21 09:04:13;;;;;;;1.05;1.05;;;;;;;3.28;82.25;94509.25;6173991;23;20383;-77
2021/03/21 09:06:41;;;;;;;2.00;1.70;;;;;;;3.03;83.37;94521.69;6122211;23;20358;-75
2021/03/21 09:09:38;;;;;;;1.65;1.48;;;;;;;3.14;83.65;94513.06;6146675;23;20013;-75
2021/03/21 09:12:25;;;;;;;1.45;1.35;;;;;;;3.11;83.15;94503.91;6123370;23;20013;-74
2021/03/21 09:14:51;;;;;;;0.70;0.70;;;;;;;3.06;81.34;94502.69;6148338;23;20332;-75
2021/03/21 09:17:21;;;;;;;2.83;2.50;;;;;;;3.37;82.37;94500.78;6123840;23;20012;-74
2021/03/21 09:19:47;;;;;;;1.02;1.02;;;;;;;3.32;81.44;94488.38;6146355;23;20029;-77
2021/03/21 09:22:32;;;;;;;0.70;0.70;;;;;;;3.15;82.57;94491.63;6171882;23;20009;-75
2021/03/21 09:24:59;;;;;;;0.90;0.90;;;;;;;3.71;83.19;94486.50;6148017;23;20022;-75
2021/03/21 09:27:33;;;;;;;0.95;0.95;;;;;;;3.38;83.17;94482.72;6146564;23;20012;-75
2021/03/21 09:29:59;;;;;;;0.70;0.70;;;;;;;3.53;83.12;94477.97;6147956;23;20012;-75
2021/03/21 09:32:26;;;;;;;1.55;1.45;;;;;;;3.85;81.67;94475.81;6145824;23;20041;-75
2021/03/21 09:35:22;;;;;;;4.25;3.85;;;;;;;4.04;81.13;94482.59;6148208;23;20317;-75
2021/03/21 09:37:48;;;;;;;2.75;2.30;;;;;;;3.93;80.22;94468.22;6135909;23;20048;-75
2021/03/21 09:40:29;;;;;;;0.75;0.75;;;;;;;3.78;79.31;94484.19;6171039;23;20013;-74
2021/03/21 09:42:55;;;;;;;0.70;0.70;;;;;;;4.25;81.12;94471.13;6172928;23;20006;-75
2021/03/21 09:45:21;;;;;;;0.93;0.90;;;;;;;4.36;78.53;94464.19;6145752;23;20032;-75
2021/03/21 09:48:00;;;;;;;0.80;0.80;;;;;;;4.19;80.76;94476.03;6172547;23;20005;-76
2021/03/21 09:50:46;;;;;;;0.57;0.57;;;;;;;3.35;80.68;94492.41;6169463;23;21379;-75
2021/03/21 09:53:11;;;;;;;1.17;1.15;;;;;;;3.62;81.86;94487.34;6148231;23;20091;-76
2021/03/21 09:55:50;;;;;;;1.33;1.23;;;;;;;3.75;81.34;94485.28;6150099;23;20435;-75
2021/03/21 09:58:38;;;;;;;2.47;1.40;;;;;;;3.29;79.60;94495.53;6145619;23;20016;-75
2021/03/21 10:01:41;;;;;;;0.95;0.80;;;;;;;3.24;80.66;94497.69;6148809;23;20021;-75
2021/03/21 10:04:34;;;;;;;0.88;0.88;;;;;;;3.31;81.84;94507.22;6150026;23;20082;-75
2021/03/21 10:07:28;;;;;;;0.68;0.68;;;;;;;3.39;81.24;94499.69;6170452;23;20088;-74
2021/03/21 10:09:54;;;;;;;0.80;0.80;;;;;;;3.29;79.78;94498.09;6146507;23;20013;-75
2021/03/21 10:12:19;;;;;;;2.00;1.90;;;;;;;3.79;81.39;94485.81;6170716;23;20009;-75
2021/03/21 10:14:50;;;;;;;2.25;0.70;;;;;;;3.83;78.70;94477.69;6146978;23;20006;-75
2021/03/21 10:17:16;;;;;;;1.23;1.15;;;;;;;3.37;79.37;94475.19;6149123;23;20060;-75
2021/03/21 10:19:47;;;;;;;0.68;0.68;;;;;;;3.62;80.33;94466.88;6147270;23;20001;-77
2021/03/21 10:22:19;;;;;;;0.88;0.80;;;;;;;3.91;79.64;94464.19;6149005;23;20044;-76
2021/03/21 10:24:45;;;;;;;0.70;0.70;;;;;;;3.75;79.01;94458.88;6146993;23;20545;-77
2021/03/21 10:27:25;;;;;;;1.50;1.40;;;;;;;3.76;79.95;94463.06;6148034;23;20081;-75
2021/03/21 10:30:20;;;;;;;0.80;0.80;;;;;;;3.72;78.57;94457.41;6149667;23;20013;-76
2021/03/21 10:32:50;;;;;;;1.88;1.77;;;;;;;3.78;78.36;94448.34;6170445;23;20072;-75
2021/03/21 10:35:25;;;;;;;2.30;2.17;;;;;;;4.01;77.96;94457.25;6147385;23;20018;-76
2021/03/21 10:37:50;;;;;;;1.10;1.10;;;;;;;3.69;78.73;94453.34;6147713;23;20013;-75
2021/03/21 10:40:25;;;;;;;2.08;1.98;;;;;;;3.44;79.41;94454.00;6147026;23;20514;-75
2021/03/21 10:42:53;;;;;;;2.10;2.00;;;;;;;3.61;79.84;94458.38;6148581;23;20427;-76
2021/03/21 10:45:30;;;;;;;1.70;1.60;;;;;;;3.53;79.53;94460.03;6147691;23;20489;-78
2021/03/21 10:47:56;;;;;;;1.08;1.08;;;;;;;3.73;80.38;94452.13;6149291;23;20320;-75
2021/03/21 10:50:28;;;;;;;2.22;1.10;;;;;;;3.63;79.46;94450.56;6169807;23;20005;-77
2021/03/21 10:53:18;;;;;;;0.77;0.77;;;;;;;3.32;79.11;94446.63;6148506;23;20053;-77
2021/03/21 10:56:08;;;;;;;2.40;2.20;;;;;;;3.28;79.71;94443.53;6171677;23;20104;-76
2021/03/21 10:58:33;;;;;;;;;;;;;;;3.63;78.76;94438.56;6147957;23;20006;-76
2021/03/21 11:01:17;;;;;;;1.40;1.30;;;;;;;3.44;80.08;94430.97;6148673;23;19919;-76
2021/03/21 11:03:59;;;;;;;1.33;1.27;;;;;;;3.89;80.00;94420.78;6146623;23;20460;-76
2021/03/21 11:06:27;;;;;;;1.50;1.40;;;;;;;3.91;80.38;94423.22;6147114;23;20006;-77
2021/03/21 11:08:52;;;;;;;1.30;1.20;;;;;;;3.61;80.37;94427.66;6122979;23;20016;-76
2021/03/21 11:11:31;;;;;;;1.38;1.27;;;;;;;3.47;80.83;94420.44;6170272;23;20005;-76
2021/03/21 11:14:09;;;;;;;1.80;1.70;;;;;;;3.62;79.08;94413.94;6147761;23;20088;-76
2021/03/21 11:16:34;;;;;;;1.85;1.75;;;;;;;3.62;80.61;94410.56;6145119;23;20454;-76
2021/03/21 11:19:04;;;;;;;1.65;1.55;;;;;;;3.93;78.51;94393.94;6147727;23;20005;-76
2021/03/21 11:21:33;;;;;;;4.88;1.90;;;;;;;4.03;80.33;94392.13;6122421;23;20005;-76
2021/03/21 11:24:05;;;;;;;2.10;1.90;;;;;;;4.49;78.72;94393.69;6146521;23;20008;-76
2021/03/21 11:26:35;;;;;;;1.50;1.40;;;;;;;3.99;80.56;94382.31;6172207;23;20069;-76
2021/03/21 11:29:04;;;;;;;;;;;;;;;3.33;81.12;94387.66;6121629;23;20010;-76
2021/03/21 11:31:52;;;;;;;1.23;1.20;;;;;;;3.70;81.06;94388.41;6149724;23;19928;-76
2021/03/21 11:34:32;;;;;;;1.40;1.30;;;;;;;4.49;78.71;94387.72;6147734;23;20081;-76
2021/03/21 11:37:05;;;;;;;1.65;1.55;;;;;;;4.05;81.02;94389.41;6173367;23;20005;-77
2021/03/21 11:39:41;;;;;;;1.42;1.42;;;;;;;3.63;82.21;94392.50;6172702;23;20009;-77
2021/03/21 11:42:11;;;;;;;1.15;1.13;;;;;;;3.42;82.25;94391.94;6171182;23;20456;-77
2021/03/21 11:44:37;;;;;;;1.00;1.00;;;;;;;3.61;82.33;94384.16;6148477;23;20092;-77
2021/03/21 11:47:25;;;;;;;1.05;1.05;;;;;;;3.65;82.90;94380.38;6171485;23;20024;-77
2021/03/21 11:49:51;;;;;;;0.88;0.88;;;;;;;3.66;82.06;94374.28;6147584;23;20352;-78
2021/03/21 11:52:17;;;;;;;1.20;1.20;;;;;;;3.60;82.82;94368.94;6173743;23;20006;-78
2021/03/21 11:54:43;;;;;;;0.82;0.82;;;;;;;4.04;82.81;94364.75;6171026;23;20483;-76
2021/03/21 11:58:00;;;;;;;1.35;1.30;;;;;;;3.85;82.02;94365.69;6174033;23;20459;-77
2021/03/21 12:00:36;;;;;;;2.17;1.10;;;;;;;3.60;83.50;94367.19;6123247;23;20044;-76
2021/03/21 12:03:14;;;;;;;1.15;1.15;;;;;;;3.44;83.56;94364.44;6121880;23;20092;-76
2021/03/21 12:05:41;;;;;;;1.25;1.15;;;;;;;3.34;85.39;94362.88;6172891;23;20017;-76
2021/03/21 12:08:13;;;;;;;1.13;1.13;;;;;;;3.24;85.02;94357.00;6147519;23;20086;-76
2021/03/21 12:10:39;;;;;;;1.00;0.98;;;;;;;3.29;84.51;94354.81;6150517;23;20029;-76
2021/03/21 12:13:35;;;;;;;1.33;1.17;;;;;;;3.38;83.73;94352.22;6147650;23;20021;-77
2021/03/21 12:16:02;;;;;;;1.27;1.17;;;;;;;3.28;85.53;94351.44;6171179;23;20005;-76
2021/03/21 12:18:29;;;;;;;1.40;1.30;;;;;;;3.70;83.37;94342.31;6148300;23;20005;-76
2021/03/21 12:20:55;;;;;;;1.30;1.30;;;;;;;3.91;83.01;94338.69;6146202;23;20014;-76
2021/03/21 12:23:30;;;;;;;1.52;1.42;;;;;;;4.04;82.36;94322.03;6148723;23;20097;-76
2021/03/21 12:26:08;;;;;;;1.95;1.85;;;;;;;4.14;82.11;94321.94;6146637;23;20014;-76
2021/03/21 12:28:37;;;;;;;1.75;1.65;;;;;;;4.15;82.41;94313.28;6173205;23;20001;-76
2021/03/21 12:31:13;;;;;;;2.35;2.25;;;;;;;4.70;81.92;94312.09;6150163;23;20082;-76
2021/03/21 12:33:39;;;;;;;1.50;1.40;;;;;;;4.37;80.86;94310.25;6146855;23;20014;-76
2021/03/21 12:36:07;;;;;;;1.30;1.30;;;;;;;4.17;80.79;94296.81;6173385;23;20012;-76
2021/03/21 12:38:51;;;;;;;1.75;1.65;;;;;;;4.84;80.24;94285.09;6149028;23;20005;-76
2021/03/21 12:41:36;;;;;;;1.60;1.50;;;;;;;4.12;78.84;94275.16;6148423;23;20005;-75
2021/03/21 12:44:21;;;;;;;2.05;1.95;;;;;;;4.02;77.37;94256.50;6150155;23;20005;-75
2021/03/21 12:46:47;;;;;;;2.17;2.08;;;;;;;3.89;78.58;94254.31;6146911;23;20444;-75
2021/03/21 12:49:30;;;;;;;1.90;1.50;;;;;;;4.08;78.45;94261.84;6150081;23;20008;-75
2021/03/21 12:52:00;;;;;;;1.63;1.52;;;;;;;4.20;76.76;94255.53;6148772;23;20443;-74
2021/03/21 12:54:25;;;;;;;2.17;2.08;;;;;;;4.68;76.76;94251.66;6148270;23;20431;-75
2021/03/21 12:56:51;;;;;;;2.72;2.50;;;;;;;4.50;78.61;94256.03;6172324;23;20002;-75
2021/03/21 12:59:16;;;;;;;2.25;2.10;;;;;;;4.35;79.04;94260.91;6170835;23;20006;-73
2021/03/21 13:01:46;;;;;;;1.48;1.38;;;;;;;4.08;76.58;94248.22;6172887;23;20347;-76
2021/03/21 13:04:11;;;;;;;2.03;1.93;;;;;;;4.15;78.68;94251.81;6147194;23;20009;-76
2021/03/21 13:06:38;;;;;;;1.70;1.60;;;;;;;4.39;78.21;94249.41;6170445;23;20348;-77
2021/03/21 13:09:04;;;;;;;1.50;1.40;;;;;;;4.15;76.02;94246.69;6169391;23;20096;-75
2021/03/21 13:11:29;;;;;;;2.83;2.10;;;;;;;4.05;76.70;94238.28;6148371;23;20033;-76
2021/03/21 13:13:55;;;;;;;1.88;1.77;;;;;;;4.16;78.79;94238.03;6147731;23;20009;-77
2021/03/21 13:16:20;;;;;;;2.05;1.95;;;;;;;3.92;78.14;94236.09;6170563;23;20029;-77
2021/03/21 13:18:45;;;;;;;1.40;1.35;;;;;;;3.63;77.88;94220.97;6172020;23;20031;-73
2021/03/21 13:21:11;;;;;;;2.53;2.30;;;;;;;3.64;78.92;94225.16;6169801;23;20018;-76
2021/03/21 13:23:36;;;;;;;1.17;1.17;;;;;;;3.62;77.67;94221.16;6172496;23;20418;-76
2021/03/21 13:26:03;;;;;;;1.83;1.73;;;;;;;3.79;78.07;94217.75;6169182;23;20060;-75
2021/03/21 13:28:30;;;;;;;2.65;2.45;;;;;;;3.72;79.80;94214.19;6171938;23;20005;-76
2021/03/21 13:30:58;;;;;;;1.80;1.63;;;;;;;3.87;79.72;94201.66;6145608;23;20005;-76
2021/03/21 13:33:26;;;;;;;1.60;1.50;;;;;;;3.70;79.83;94198.97;6171046;23;20036;-75
2021/03/21 13:35:55;;;;;;;1.42;1.33;;;;;;;3.69;79.73;94197.34;6146781;23;20017;-76
2021/03/21 13:38:20;;;;;;;2.72;2.53;;;;;;;3.78;80.92;94192.31;6144908;23;20376;-76
2021/03/21 13:40:46;;;;;;;3.22;2.97;;;;;;;4.21;79.89;94200.75;6172104;23;20029;-76
2021/03/21 13:43:11;;;;;;;2.30;2.17;;;;;;;3.94;79.13;94190.69;6142095;23;20709;-76
2021/03/21 13:45:38;;;;;;;7.25;6.55;;;;;;;3.99;81.63;94200.44;6147370;23;20110;-76
2021/03/21 13:48:04;;;;;;;3.20;3.00;;;;;;;3.78;80.63;94193.13;6119612;23;20006;-76
2021/03/21 13:50:29;;;;;;;1.90;1.80;;;;;;;3.55;81.17;94187.66;6147358;23;20010;-77
2021/03/21 13:52:55;;;;;;;1.48;1.38;;;;;;;3.62;81.56;94169.94;6171045;23;20432;-77
2021/03/21 13:55:25;;;;;;;1.80;1.70;;;;;;;3.70;81.29;94173.38;6170761;23;20005;-77
2021/03/21 13:57:50;;;;;;;1.42;1.33;;;;;;;3.33;81.17;94177.06;6159646;23;20006;-78
2021/03/21 14:00:16;;;;;;;1.60;1.50;;;;;;;3.33;82.08;94174.50;6168419;23;20017;-76
2021/03/21 14:02:42;;;;;;;1.50;1.40;;;;;;;3.34;81.43;94174.34;6146311;23;20018;-77
2021/03/21 14:05:08;;;;;;;1.70;1.60;;;;;;;3.22;82.58;94167.84;6168763;23;20524;-77
2021/03/21 14:07:33;;;;;;;1.45;1.40;;;;;;;3.40;82.10;94158.44;6146538;23;20005;-76
2021/03/21 14:09:59;;;;;;;2.80;2.03;;;;;;;3.44;82.44;94154.59;6170200;23;20017;-77
2021/03/21 14:12:24;;;;;;;1.83;1.73;;;;;;;3.16;82.22;94151.34;6169816;23;20002;-76
2021/03/21 14:14:50;;;;;;;2.20;2.10;;;;;;;3.21;81.53;94153.47;6171589;23;20053;-76
2021/03/21 14:17:15;;;;;;;2.22;2.10;;;;;;;3.08;80.97;94155.56;6145890;23;20013;-76
2021/03/21 14:19:40;;;;;;;2.63;2.42;;;;;;;3.15;81.77;94156.56;6170555;23;20013;-77
2021/03/21 14:22:06;;;;;;;2.80;2.60;;;;;;;2.98;82.62;94158.19;6169127;23;20016;-77
2021/03/21 14:24:31;;;;;;;2.22;2.13;;;;;;;2.80;82.39;94161.66;6148245;23;20008;-76
2021/03/21 14:26:57;;;;;;;2.90;2.70;;;;;;;2.96;83.65;94166.94;6168876;23;20009;-76
2021/03/21 14:29:22;;;;;;;3.42;3.22;;;;;;;2.92;83.69;94160.53;6170660;23;20433;-77
2021/03/21 14:31:48;;;;;;;5.05;4.70;;;;;;;2.96;83.20;94160.06;6170921;23;20012;-78
2021/03/21 14:34:13;;;;;;;2.97;2.78;;;;;;;3.13;82.84;94153.38;6169686;23;20009;-76
2021/03/21 14:36:39;;;;;;;3.20;3.00;;;;;;;3.00;83.00;94142.69;6171336;23;20006;-77
2021/03/21 14:39:04;;;;;;;3.60;3.40;;;;;;;3.18;83.75;94144.31;6168368;23;20024;-76
2021/03/21 14:41:30;;;;;;;2.65;2.55;;;;;;;2.94;83.92;94140.72;6171261;23;20084;-78
2021/03/21 14:43:55;;;;;;;3.28;3.08;;;;;;;2.97;83.17;94136.13;6169648;23;20071;-81
2021/03/21 14:46:21;;;;;;;3.63;3.38;;;;;;;2.98;83.50;94130.06;6173488;23;20002;-76
2021/03/21 14:48:46;;;;;;;3.72;3.50;;;;;;;2.94;83.60;94133.88;6143790;23;20005;-77
2021/03/21 14:51:13;;;;;;;3.75;3.55;;;;;;;2.89;84.84;94118.13;6147103;23;20009;-77
2021/03/21 14:53:38;;;;;;;3.83;3.63;;;;;;;2.55;85.72;94115.41;6121952;23;20045;-77
2021/03/21 14:56:04;;;;;;;3.78;3.58;;;;;;;2.42;86.86;94125.16;6168166;23;20344;-77
2021/03/21 14:58:29;;;;;;;5.00;4.70;;;;;;;2.63;86.52;94122.38;6147009;23;20009;-78
2021/03/21 15:00:56;;;;;;;4.50;4.20;;;;;;;2.38;86.61;94117.91;6143344;23;20014;-77
2021/03/21 15:03:22;;;;;;;6.35;5.95;;;;;;;2.37;88.02;94116.31;6146163;23;20015;-78
2021/03/21 15:05:48;;;;;;;4.68;4.38;;;;;;;2.39;87.32;94115.22;6170195;23;20002;-78
2021/03/21 15:08:17;;;;;;;5.55;5.22;;;;;;;2.00;89.03;94116.34;6173424;23;20516;-77
2021/03/21 15:10:43;;;;;;;5.47;5.00;;;;;;;2.02;89.38;94117.78;6122137;23;20009;-78
2021/03/21 15:13:08;;;;;;;5.45;5.05;;;;;;;1.81;90.40;94119.75;6171792;23;20008;-77
2021/03/21 15:15:35;;;;;;;6.82;6.32;;;;;;;2.03;89.54;94100.72;6173850;23;20012;-77
2021/03/21 15:18:01;;;;;;;8.10;7.40;;;;;;;1.88;90.48;94102.16;6171871;23;20060;-77
2021/03/21 15:20:27;;;;;;;5.80;5.40;;;;;;;1.71;90.67;94103.66;6172306;23;20006;-77
2021/03/21 15:22:54;;;;;;;6.45;5.95;;;;;;;1.81;90.79;94094.25;6170848;23;20009;-76
2021/03/21 15:25:19;;;;;;;7.18;6.68;;;;;;;1.75;91.36;94102.44;6148619;23;20020;-77
2021/03/21 15:27:45;;;;;;;7.10;6.50;;;;;;;1.80;91.30;94082.41;6149661;23;20006;-76
2021/03/21 15:30:11;;;;;;;6.07;5.57;;;;;;;1.80;90.84;94076.53;6171313;23;20056;-77
2021/03/21 15:32:37;;;;;;;5.45;5.05;;;;;;;1.70;91.41;94073.19;6173108;23;20014;-76
2021/03/21 15:35:03;;;;;;;6.75;6.25;;;;;;;1.93;90.69;94074.44;6171389;23;20558;-77
2021/03/21 15:37:29;;;;;;;5.90;5.40;;;;;;;2.01;90.11;94080.47;6149186;23;20431;-76
2021/03/21 15:39:56;;;;;;;7.45;6.88;;;;;;;2.13;89.46;94084.44;6145716;23;20005;-77
2021/03/21 15:42:21;;;;;;;7.47;6.88;;;;;;;1.90;90.68;94084.94;6147522;23;20016;-77
2021/03/21 15:44:48;;;;;;;9.38;8.63;;;;;;;2.28;89.10;94092.41;6171727;23;20009;-76
2021/03/21 15:47:13;;;;;;;8.98;8.07;;;;;;;1.92;89.40;94094.06;6147677;23;20040;-77
2021/03/21 15:49:39;;;;;;;9.00;8.20;;;;;;;1.79;91.44;94093.59;6172570;23;20010;-77
2021/03/21 15:52:05;;;;;;;8.50;7.80;;;;;;;2.11;90.03;94105.97;6170765;23;20002;-77
2021/03/21 15:54:31;;;;;;;8.40;7.65;;;;;;;2.36;88.80;94099.38;6147582;23;20009;-77
2021/03/21 15:56:56;;;;;;;9.05;8.25;;;;;;;1.62;91.02;94098.59;6170048;23;20418;-77
2021/03/21 15:59:22;;;;;;;8.68;7.97;;;;;;;2.02;90.29;94091.50;6173265;23;20010;-77
2021/03/21 16:01:48;;;;;;;11.52;10.45;;;;;;;1.82;90.86;94088.19;6170032;23;20024;-77
2021/03/21 16:04:13;;;;;;;18.60;16.63;;;;;;;1.99;90.77;94091.78;6148391;23;20009;-77
2021/03/21 16:06:39;;;;;;;9.75;8.95;;;;;;;2.20;89.95;94094.88;6149162;23;20005;-77
2021/03/21 16:09:04;;;;;;;17.67;15.65;;;;;;;2.02;90.34;94094.03;6170952;23;20013;-77
2021/03/21 16:11:31;;;;;;;9.57;8.68;;;;;;;1.96;89.58;94097.13;6147562;23;20506;-77
2021/03/21 16:13:57;;;;;;;12.93;11.60;;;;;;;2.14;90.31;94098.00;6170681;23;20001;-76
2021/03/21 16:16:22;;;;;;;8.90;8.20;;;;;;;1.72;90.75;94096.81;6147869;23;20033;-77
2021/03/21 16:18:48;;;;;;;13.52;11.70;;;;;;;2.03;90.67;94087.97;6170556;23;20367;-77
2021/03/21 16:21:13;;;;;;;8.48;7.80;;;;;;;2.18;89.15;94090.88;6172975;23;20036;-76
2021/03/21 16:23:39;;;;;;;8.02;7.38;;;;;;;1.84;90.14;94082.94;6169810;23;20089;-77
2021/03/21 16:26:04;;;;;;;10.90;9.77;;;;;;;2.04;90.37;94079.38;6149543;23;20464;-77
2021/03/21 16:28:30;;;;;;;8.95;8.13;;;;;;;1.71;90.69;94074.78;6172373;23;20016;-77
2021/03/21 16:30:55;;;;;;;11.15;10.15;;;;;;;2.03;90.21;94072.66;6171134;23;20009;-78
2021/03/21 16:33:27;;;;;;;12.13;11.13;;;;;;;2.16;89.31;94075.69;6172398;23;20055;-77
2021/03/21 16:35:56;;;;;;;23.35;17.80;;;;;;;2.28;89.14;94087.31;6121412;23;20009;-77
2021/03/21 16:38:21;;;;;;;13.32;11.88;;;;;;;1.88;90.30;94079.16;6171776;23;20025;-77
2021/03/21 16:40:49;;;;;;;18.60;16.20;;;;;;;1.99;90.24;94077.22;6110511;23;20017;-77
2021/03/21 16:43:17;;;;;;;11.90;10.88;;;;;;;1.93;90.60;94097.41;6147017;23;20064;-77
2021/03/21 16:45:43;;;;;;;8.43;7.70;;;;;;;2.04;90.14;94099.81;6145789;23;20014;-77
2021/03/21 16:48:10;;;;;;;11.88;10.68;;;;;;;1.78;91.31;94103.91;6145629;23;20088;-78
2021/03/21 16:50:36;;;;;;;15.10;13.70;;;;;;;1.77;91.43;94103.09;6149547;23;20008;-76
2021/03/21 16:53:02;;;;;;;18.15;16.30;;;;;;;1.83;90.76;94097.44;6144225;23;20457;-75
2021/03/21 16:55:27;;;;;;;19.90;15.10;;;;;;;1.73;90.71;94078.03;6147348;23;20448;-78
2021/03/21 16:57:54;;;;;;;15.05;13.45;;;;;;;1.49;92.17;94056.34;6144459;23;20013;-78
2021/03/21 17:00:22;;;;;;;62.20;37.55;;;;;;;2.03;90.37;94050.47;6147569;23;20065;-78
2021/03/21 17:02:54;;;;;;;42.05;31.25;;;;;;;2.01;90.55;94054.94;6144262;23;20029;-78
2021/03/21 17:05:19;;;;;;;87.05;48.60;;;;;;;1.72;91.49;94058.53;6121068;23;20176;-78
2021/03/21 17:07:50;;;;;;;133.30;67.05;;;;;;;1.89;90.99;94053.53;6146880;23;20005;-77
2021/03/21 17:10:18;;;;;;;85.68;43.13;;;;;;;1.91;90.71;94068.69;6145734;23;20783;-79